createdAt,value
2022-10-20T00:00:59.394Z,5.97
2022-10-20T00:03:28.196Z,6.00
2022-10-20T00:05:56.929Z,6.00
2022-10-20T00:08:26.001Z,5.96
2022-10-20T00:10:55.121Z,5.97
2022-10-20T00:13:23.437Z,5.93
2022-10-20T00:15:53.215Z,5.87
2022-10-20T00:18:21.586Z,5.72
2022-10-20T00:20:50.208Z,5.66
2022-10-20T00:23:18.233Z,5.66
2022-10-20T00:25:46.248Z,5.73
2022-10-20T00:28:14.496Z,5.83
2022-10-20T00:30:42.751Z,5.83
2022-10-20T00:33:12.061Z,5.87
2022-10-20T00:35:40.183Z,5.76
2022-10-20T00:38:08.194Z,5.86
2022-10-20T00:40:36.125Z,5.80
2022-10-20T00:43:06.421Z,5.75
2022-10-20T00:45:34.441Z,5.66
2022-10-20T00:48:07.896Z,5.67
2022-10-20T00:50:42.433Z,5.47
2022-10-20T00:53:11.579Z,5.24
2022-10-20T00:55:43.525Z,5.40
2022-10-20T00:58:11.544Z,5.20
2022-10-20T01:00:41.183Z,5.26
2022-10-20T01:03:14.615Z,5.28
2022-10-20T01:05:44.114Z,5.24
2022-10-20T01:08:12.067Z,5.35
2022-10-20T01:10:42.955Z,5.41
2022-10-20T01:13:17.097Z,5.16
2022-10-20T01:15:50.358Z,5.19
2022-10-20T01:18:25.470Z,5.34
2022-10-20T01:21:23.486Z,5.32
2022-10-20T01:27:21.786Z,5.26
2022-10-20T01:29:56.421Z,5.26
2022-10-20T01:32:30.280Z,5.30
2022-10-20T01:35:05.564Z,5.24
2022-10-20T01:37:48.886Z,5.26
2022-10-20T01:40:23.124Z,5.20
2022-10-20T01:42:53.636Z,5.30
2022-10-20T01:45:26.750Z,5.28
2022-10-20T01:47:55.660Z,5.37
2022-10-20T01:50:26.360Z,5.27
2022-10-20T01:52:57.463Z,5.26
2022-10-20T01:55:27.392Z,5.17
2022-10-20T01:58:14.908Z,5.34
2022-10-20T02:00:45.303Z,5.38
2022-10-20T02:03:26.570Z,5.37
2022-10-20T02:06:08.795Z,5.31
2022-10-20T02:08:43.687Z,5.42
2022-10-20T02:11:21.161Z,5.41
2022-10-20T02:13:51.176Z,5.45
2022-10-20T02:16:28.406Z,5.41
2022-10-20T02:19:00.520Z,5.42
2022-10-20T02:21:28.836Z,5.48
2022-10-20T02:24:00.590Z,5.52
2022-10-20T02:26:30.734Z,5.48
2022-10-20T02:29:01.672Z,5.41
2022-10-20T02:31:31.055Z,5.41
2022-10-20T02:33:59.550Z,5.48
2022-10-20T02:36:29.319Z,5.49
2022-10-20T02:38:57.694Z,5.52
2022-10-20T02:41:26.820Z,5.66
2022-10-20T02:43:54.724Z,5.56
2022-10-20T02:46:22.606Z,5.49
2022-10-20T02:48:52.004Z,5.49
2022-10-20T02:51:19.934Z,5.44
2022-10-20T02:53:47.885Z,5.37
2022-10-20T02:56:15.770Z,5.31
2022-10-20T02:58:43.930Z,5.37
2022-10-20T03:01:12.132Z,5.31
2022-10-20T03:03:40.075Z,5.30
2022-10-20T03:06:11.146Z,5.00
2022-10-20T03:08:39.155Z,5.17
2022-10-20T03:11:07.559Z,5.16
2022-10-20T03:13:35.461Z,5.19
2022-10-20T03:16:03.433Z,5.19
2022-10-20T03:18:31.364Z,5.17
2022-10-20T03:20:59.262Z,5.20
2022-10-20T03:23:28.597Z,5.09
2022-10-20T03:26:02.760Z,5.16
2022-10-20T03:28:30.926Z,5.12
2022-10-20T03:30:59.179Z,4.93
2022-10-20T03:33:27.211Z,4.92
2022-10-20T03:35:55.205Z,4.90
2022-10-20T03:38:23.472Z,4.93
2022-10-20T03:40:52.919Z,5.03
2022-10-20T03:43:20.994Z,5.21
2022-10-20T03:45:48.966Z,5.23
2022-10-20T03:48:17.058Z,5.28
2022-10-20T03:50:44.975Z,5.28
2022-10-20T03:53:15.024Z,5.26
2022-10-20T03:55:42.725Z,5.34
2022-10-20T03:58:11.973Z,5.34
2022-10-20T04:00:39.906Z,5.38
2022-10-20T04:03:07.762Z,5.37
2022-10-20T04:05:35.805Z,5.35
2022-10-20T04:08:04.248Z,5.44
2022-10-20T04:10:33.810Z,5.42
2022-10-20T04:13:02.136Z,5.38
2022-10-20T04:15:31.842Z,5.49
2022-10-20T04:17:59.834Z,5.38
2022-10-20T04:20:27.809Z,5.51
2022-10-20T04:22:55.781Z,5.58
2022-10-20T04:25:23.765Z,5.44
2022-10-20T04:27:51.802Z,5.32
2022-10-20T04:30:19.958Z,5.31
2022-10-20T04:32:49.267Z,5.27
2022-10-20T04:35:17.408Z,5.21
2022-10-20T04:37:45.638Z,5.24
2022-10-20T04:40:13.634Z,5.19
2022-10-20T04:42:41.561Z,5.28
2022-10-20T04:45:10.542Z,5.13
2022-10-20T04:47:38.993Z,5.13
2022-10-20T04:50:09.323Z,5.16
2022-10-20T04:52:37.526Z,5.04
2022-10-20T04:55:06.100Z,4.97
2022-10-20T04:57:35.007Z,4.96
2022-10-20T05:00:03.502Z,4.93
2022-10-20T05:02:31.668Z,4.90
2022-10-20T05:04:59.606Z,4.87
2022-10-20T05:07:31.830Z,4.96
2022-10-20T05:10:00.244Z,5.01
2022-10-20T05:12:28.739Z,4.97
2022-10-20T05:14:56.737Z,5.04
2022-10-20T05:17:24.651Z,5.06
2022-10-20T05:19:52.622Z,5.10
2022-10-20T05:22:20.600Z,5.03
2022-10-20T05:24:49.948Z,5.01
2022-10-20T05:27:17.894Z,5.03
2022-10-20T05:29:45.900Z,5.01
2022-10-20T05:32:13.900Z,5.09
2022-10-20T05:34:41.914Z,5.06
2022-10-20T05:37:09.877Z,5.12
2022-10-20T05:39:37.954Z,5.16
2022-10-20T05:42:07.294Z,5.17
2022-10-20T05:44:35.361Z,5.21
2022-10-20T05:47:03.298Z,5.28
2022-10-20T05:49:31.284Z,5.37
2022-10-20T05:51:59.259Z,5.38
2022-10-20T05:54:29.560Z,5.37
2022-10-20T05:56:57.663Z,5.27
2022-10-20T05:59:27.295Z,5.21
2022-10-20T06:01:55.339Z,5.27
2022-10-20T06:04:24.915Z,5.17
2022-10-20T06:06:53.700Z,5.34
2022-10-20T06:09:22.819Z,5.28
2022-10-20T06:11:50.902Z,5.42
2022-10-20T06:14:19.274Z,5.35
2022-10-20T06:16:51.773Z,5.31
2022-10-20T06:19:20.358Z,5.27
2022-10-20T06:21:49.401Z,5.35
2022-10-20T06:24:18.132Z,5.40
2022-10-20T06:26:46.735Z,5.40
2022-10-20T06:29:17.811Z,5.45
2022-10-20T06:31:48.835Z,5.52
2022-10-20T06:34:19.257Z,5.65
2022-10-20T06:36:48.077Z,5.67
2022-10-20T06:39:19.237Z,5.77
2022-10-20T06:41:48.592Z,5.82
2022-10-20T06:44:20.861Z,5.77
2022-10-20T06:46:52.339Z,5.93
2022-10-20T06:49:20.846Z,5.97
2022-10-20T06:51:48.759Z,5.97
2022-10-20T06:54:16.763Z,6.03
2022-10-20T06:56:44.744Z,6.14
2022-10-20T06:59:13.103Z,6.25
2022-10-20T07:01:42.280Z,6.37
2022-10-20T07:04:15.849Z,6.37
2022-10-20T07:06:45.485Z,6.50
2022-10-20T07:09:16.221Z,6.68
2022-10-20T07:11:44.659Z,6.63
2022-10-20T07:14:14.204Z,6.66
2022-10-20T07:16:43.225Z,6.80
2022-10-20T07:19:12.560Z,6.86
2022-10-20T07:21:45.342Z,7.00
2022-10-20T07:24:13.972Z,7.12
2022-10-20T07:26:42.823Z,7.28
2022-10-20T07:29:12.540Z,7.43
2022-10-20T07:31:42.235Z,7.53
2022-10-20T07:34:25.025Z,7.69
2022-10-20T07:36:54.330Z,7.62
2022-10-20T07:39:22.321Z,7.80
2022-10-20T07:41:50.878Z,7.84
2022-10-20T07:44:19.260Z,7.91
2022-10-20T07:46:47.325Z,8.08
2022-10-20T07:52:05.225Z,8.21
2022-10-20T07:54:33.159Z,8.38
2022-10-20T07:57:01.136Z,8.50
2022-10-20T07:59:29.627Z,8.59
2022-10-20T08:01:59.558Z,8.64
2022-10-20T08:04:31.690Z,8.59
2022-10-20T08:07:00.008Z,8.59
2022-10-20T08:09:27.990Z,8.74
2022-10-20T08:11:56.275Z,8.94
2022-10-20T08:14:27.004Z,8.98
2022-10-20T08:16:55.365Z,9.18
2022-10-20T08:19:25.127Z,8.98
2022-10-20T08:21:54.478Z,8.98
2022-10-20T08:24:23.647Z,9.09
2022-10-20T08:26:51.592Z,9.30
2022-10-20T08:29:19.729Z,9.47
2022-10-20T08:31:47.696Z,9.58
2022-10-20T08:34:15.880Z,9.50
2022-10-20T08:36:43.948Z,9.57
2022-10-20T08:39:13.167Z,9.65
2022-10-20T08:44:34.948Z,10.01
2022-10-20T08:47:04.810Z,10.17
2022-10-20T08:49:36.094Z,10.33
2022-10-20T08:52:05.145Z,10.49
2022-10-20T08:54:35.506Z,10.74
2022-10-20T08:57:03.545Z,10.88
2022-10-20T08:59:39.107Z,10.98
2022-10-20T09:02:16.630Z,11.18
2022-10-20T09:04:48.962Z,11.24
2022-10-20T09:07:24.457Z,11.43
2022-10-20T09:10:05.342Z,11.54
2022-10-20T09:12:34.699Z,11.58
2022-10-20T09:15:04.180Z,11.72
2022-10-20T09:17:32.552Z,11.86
2022-10-20T09:20:02.153Z,11.71
2022-10-20T09:22:35.804Z,11.75
2022-10-20T09:25:06.125Z,11.98
2022-10-20T09:27:35.784Z,12.09
2022-10-20T09:30:16.175Z,12.15
2022-10-20T09:32:47.261Z,12.37
2022-10-20T09:35:28.675Z,12.55
2022-10-20T09:38:02.562Z,12.62
2022-10-20T09:40:32.387Z,12.64
2022-10-20T09:43:03.404Z,13.20
2022-10-20T09:45:35.185Z,13.38
2022-10-20T09:48:06.453Z,13.51
2022-10-20T09:50:38.140Z,13.43
2022-10-20T09:53:08.435Z,13.33
2022-10-20T09:55:42.475Z,13.16
2022-10-20T09:58:19.787Z,13.10
2022-10-20T10:00:57.978Z,13.19
2022-10-20T10:03:26.268Z,13.27
2022-10-20T10:05:55.473Z,13.24
2022-10-20T10:08:25.871Z,13.26
2022-10-20T10:11:06.465Z,13.65
2022-10-20T10:13:42.098Z,13.68
2022-10-20T10:16:11.839Z,13.65
2022-10-20T10:18:40.279Z,13.48
2022-10-20T10:21:10.025Z,13.58
2022-10-20T10:23:50.639Z,13.78
2022-10-20T10:26:46.459Z,13.75
2022-10-20T10:29:19.237Z,14.09
2022-10-20T10:31:59.010Z,14.48
2022-10-20T10:34:46.406Z,14.80
2022-10-20T10:37:17.313Z,15.06
2022-10-20T10:39:45.766Z,14.80
2022-10-20T10:42:44.773Z,14.97
2022-10-20T10:45:20.706Z,15.16
2022-10-20T10:48:18.829Z,15.32
2022-10-20T10:50:52.644Z,14.89
2022-10-20T10:53:29.976Z,14.78
2022-10-20T10:56:04.331Z,14.82
2022-10-20T10:58:42.485Z,15.04
2022-10-20T11:01:24.556Z,15.28
2022-10-20T11:04:21.746Z,15.30
2022-10-20T11:06:58.287Z,15.41
2022-10-20T11:09:36.274Z,15.27
2022-10-20T11:12:23.525Z,15.08
2022-10-20T11:15:05.035Z,15.42
2022-10-20T11:17:47.395Z,15.24
2022-10-20T11:20:27.480Z,15.21
2022-10-20T11:23:36.955Z,15.21
2022-10-20T11:26:14.767Z,15.48
2022-10-20T11:28:46.288Z,15.40
2022-10-20T11:31:23.513Z,15.38
2022-10-20T11:33:57.799Z,15.48
2022-10-20T11:36:30.869Z,15.58
2022-10-20T11:38:58.824Z,15.44
2022-10-20T11:41:32.972Z,15.42
2022-10-20T11:44:06.037Z,15.63
2022-10-20T11:46:40.290Z,15.89
2022-10-20T11:49:12.184Z,15.51
2022-10-20T11:52:08.689Z,15.54
2022-10-20T11:55:01.380Z,15.79
2022-10-20T11:57:46.156Z,15.92
2022-10-20T12:00:33.616Z,15.63
2022-10-20T12:03:41.506Z,15.59
2022-10-20T12:06:43.583Z,15.55
2022-10-20T12:09:33.491Z,15.51
2022-10-20T12:12:04.088Z,15.62
2022-10-20T12:14:37.902Z,15.62
2022-10-20T12:17:14.426Z,16.03
2022-10-20T12:19:42.591Z,16.13
2022-10-20T12:22:42.777Z,15.51
2022-10-20T12:25:38.307Z,15.44
2022-10-20T12:28:35.160Z,15.47
2022-10-20T12:31:04.806Z,15.44
2022-10-20T12:33:42.521Z,15.57
2022-10-20T12:36:30.868Z,15.34
2022-10-20T12:39:24.972Z,15.20
2022-10-20T12:42:01.051Z,15.02
2022-10-20T12:44:31.949Z,14.82
2022-10-20T12:47:05.855Z,14.68
2022-10-20T12:49:35.802Z,14.46
2022-10-20T12:52:05.539Z,14.42
2022-10-20T12:54:36.571Z,14.35
2022-10-20T12:57:26.243Z,14.23
2022-10-20T12:59:54.428Z,14.21
2022-10-20T13:02:55.053Z,14.24
2022-10-20T13:05:43.540Z,14.20
2022-10-20T13:08:26.930Z,14.10
2022-10-20T13:11:34.087Z,14.13
2022-10-20T13:14:29.005Z,14.10
2022-10-20T13:17:05.536Z,14.05
2022-10-20T13:19:40.686Z,14.08
2022-10-20T13:22:40.872Z,14.18
2022-10-20T13:25:17.862Z,14.14
2022-10-20T13:27:45.927Z,14.06
2022-10-20T13:30:23.402Z,14.00
2022-10-20T13:33:18.181Z,14.02
2022-10-20T13:35:58.555Z,14.00
2022-10-20T13:38:34.196Z,13.98
2022-10-20T13:41:10.274Z,13.98
2022-10-20T13:43:46.305Z,13.95
2022-10-20T13:46:33.455Z,14.10
2022-10-20T13:49:19.889Z,13.93
2022-10-20T13:51:50.916Z,13.98
2022-10-20T13:54:23.485Z,14.02
2022-10-20T13:56:52.549Z,13.92
2022-10-20T14:01:55.460Z,13.86
2022-10-20T14:04:29.014Z,13.85
2022-10-20T14:07:02.720Z,13.86
2022-10-20T14:09:30.830Z,13.86
2022-10-20T14:12:03.554Z,13.83
2022-10-20T14:14:32.262Z,13.71
2022-10-20T14:17:03.285Z,13.59
2022-10-20T14:19:33.543Z,13.62
2022-10-20T14:22:16.949Z,13.65
2022-10-20T14:24:46.748Z,13.62
2022-10-20T14:27:19.711Z,13.55
2022-10-20T14:29:48.986Z,13.62
2022-10-20T14:32:21.859Z,13.57
2022-10-20T14:34:58.783Z,13.41
2022-10-20T14:37:31.437Z,13.37
2022-10-20T14:40:02.391Z,13.26
2022-10-20T14:42:32.388Z,13.21
2022-10-20T14:45:01.208Z,13.17
2022-10-20T14:47:35.602Z,13.03
2022-10-20T14:50:04.076Z,12.95
2022-10-20T14:52:35.572Z,12.85
2022-10-20T14:55:03.823Z,12.71
2022-10-20T14:57:40.426Z,12.62
2022-10-20T15:00:41.843Z,12.50
2022-10-20T15:03:12.625Z,12.45
2022-10-20T15:05:42.911Z,12.43
2022-10-20T15:08:31.923Z,12.34
2022-10-20T15:11:00.176Z,12.20
2022-10-20T15:13:30.521Z,12.20
2022-10-20T15:16:00.242Z,12.16
2022-10-20T15:18:30.521Z,12.12
2022-10-20T15:20:58.972Z,12.09
2022-10-20T15:23:28.497Z,12.10
2022-10-20T15:26:01.410Z,12.10
2022-10-20T15:28:38.818Z,12.03
2022-10-20T15:31:16.206Z,12.00
2022-10-20T15:33:45.643Z,11.96
2022-10-20T15:36:15.861Z,12.02
2022-10-20T15:38:43.789Z,12.00
2022-10-20T15:41:14.475Z,11.95
2022-10-20T15:43:42.447Z,11.95
2022-10-20T15:46:11.845Z,11.96
2022-10-20T15:48:40.202Z,11.96
2022-10-20T15:51:14.424Z,11.96
2022-10-20T15:53:44.262Z,11.93
2022-10-20T15:56:12.150Z,11.93
2022-10-20T15:58:41.287Z,11.93
2022-10-20T16:01:10.278Z,11.95
2022-10-20T16:03:40.786Z,11.96
2022-10-20T16:06:10.535Z,12.00
2022-10-20T16:08:38.559Z,12.00
2022-10-20T16:11:07.305Z,12.06
2022-10-20T16:13:35.996Z,12.05
2022-10-20T16:16:03.938Z,12.06
2022-10-20T16:18:32.031Z,12.12
2022-10-20T16:21:01.602Z,12.05
2022-10-20T16:23:30.919Z,12.08
2022-10-20T16:25:58.870Z,12.05
2022-10-20T16:28:26.867Z,12.03
2022-10-20T16:31:02.863Z,12.05
2022-10-20T16:33:32.481Z,12.08
2022-10-20T16:36:03.321Z,12.09
2022-10-20T16:38:37.355Z,12.10
2022-10-20T16:41:10.617Z,12.17
2022-10-20T16:43:39.646Z,12.17
2022-10-20T16:46:08.267Z,12.22
2022-10-20T16:48:37.733Z,12.23
2022-10-20T16:51:07.177Z,12.23
2022-10-20T16:53:36.966Z,12.23
2022-10-20T16:56:06.082Z,12.30
2022-10-20T16:58:34.639Z,12.32
2022-10-20T17:01:06.352Z,12.30
2022-10-20T17:03:34.851Z,12.36
2022-10-20T17:06:05.437Z,12.34
2022-10-20T17:08:34.224Z,12.38
2022-10-20T17:11:05.866Z,12.33
2022-10-20T17:13:34.642Z,12.33
2022-10-20T17:16:05.356Z,12.27
2022-10-20T17:18:33.536Z,12.29
2022-10-20T17:21:01.681Z,12.30
2022-10-20T17:23:32.335Z,12.33
2022-10-20T17:26:02.332Z,12.30
2022-10-20T17:28:32.829Z,12.36
2022-10-20T17:31:01.210Z,12.38
2022-10-20T17:33:31.335Z,12.36
2022-10-20T17:36:00.904Z,12.38
2022-10-20T17:38:29.763Z,12.34
2022-10-20T17:40:57.774Z,12.32
2022-10-20T17:43:25.660Z,12.33
2022-10-20T17:45:59.797Z,12.33
2022-10-20T17:48:28.276Z,12.32
2022-10-20T17:51:03.928Z,12.36
2022-10-20T17:53:32.812Z,12.37
2022-10-20T17:56:04.757Z,12.37
2022-10-20T17:58:33.706Z,12.44
2022-10-20T18:01:14.497Z,12.57
2022-10-20T18:03:43.098Z,12.54
2022-10-20T18:06:13.017Z,12.51
2022-10-20T18:08:40.814Z,12.52
2022-10-20T18:11:09.755Z,12.50
2022-10-20T18:13:38.036Z,12.57
2022-10-20T18:16:07.027Z,12.62
2022-10-20T18:18:36.461Z,12.58
2022-10-20T18:21:05.420Z,12.62
2022-10-20T18:23:36.064Z,12.61
2022-10-20T18:26:09.244Z,12.45
2022-10-20T18:28:40.228Z,12.41
2022-10-20T18:31:11.429Z,12.44
2022-10-20T18:33:41.681Z,12.36
2022-10-20T18:36:11.399Z,12.33
2022-10-20T18:38:41.365Z,12.38
2022-10-20T18:41:10.994Z,12.36
2022-10-20T18:43:39.101Z,12.43
2022-10-20T18:46:10.099Z,12.50
2022-10-20T18:48:41.141Z,12.47
2022-10-20T18:51:10.600Z,12.43
2022-10-20T18:56:11.952Z,12.37
2022-10-20T18:58:41.412Z,12.45
2022-10-20T19:01:11.522Z,12.41
2022-10-20T19:03:42.525Z,12.34
2022-10-20T19:06:13.137Z,12.26
2022-10-20T19:08:41.972Z,12.30
2022-10-20T19:11:12.466Z,12.32
2022-10-20T19:13:41.251Z,12.36
2022-10-20T19:16:11.510Z,12.40
2022-10-20T19:18:41.442Z,12.30
2022-10-20T19:21:09.838Z,12.40
2022-10-20T19:23:39.748Z,12.32
2022-10-20T19:26:10.648Z,12.32
2022-10-20T19:28:40.605Z,12.29
2022-10-20T19:31:20.551Z,12.34
2022-10-20T19:33:53.078Z,12.37
2022-10-20T19:36:21.713Z,12.37
2022-10-20T19:38:50.396Z,12.38
2022-10-20T19:41:18.470Z,12.34
2022-10-20T19:43:46.533Z,12.44
2022-10-20T19:46:17.032Z,12.40
2022-10-20T19:48:49.068Z,12.34
2022-10-20T19:51:20.130Z,12.36
2022-10-20T19:53:48.919Z,12.26
2022-10-20T19:56:17.216Z,12.29
2022-10-20T19:58:48.421Z,12.33
2022-10-20T20:01:17.924Z,12.22
2022-10-20T20:03:46.429Z,12.22
2022-10-20T20:06:17.246Z,12.19
2022-10-20T20:08:49.910Z,12.23
2022-10-20T20:11:24.175Z,12.15
2022-10-20T20:13:52.846Z,12.22
2022-10-20T20:16:21.047Z,12.23
2022-10-20T20:18:49.162Z,12.05
2022-10-20T20:21:17.674Z,11.85
2022-10-20T20:23:59.255Z,11.67
2022-10-20T20:26:28.998Z,11.64
2022-10-20T20:28:57.522Z,11.61
2022-10-20T20:31:26.288Z,11.55
2022-10-20T20:33:54.899Z,11.41
2022-10-20T20:36:23.222Z,11.37
2022-10-20T20:38:55.082Z,11.41
2022-10-20T20:41:26.144Z,11.44
2022-10-20T20:43:54.689Z,11.44
2022-10-20T20:46:24.262Z,11.37
2022-10-20T20:48:52.580Z,11.50
2022-10-20T20:51:20.826Z,11.50
2022-10-20T20:53:49.111Z,11.54
2022-10-20T20:56:21.853Z,11.55
2022-10-20T20:58:54.954Z,11.63
2022-10-20T21:01:25.259Z,11.58
2022-10-20T21:03:56.779Z,11.51
2022-10-20T21:06:33.238Z,11.40
2022-10-20T21:09:07.261Z,11.26
2022-10-20T21:11:37.073Z,11.33
2022-10-20T21:14:06.245Z,11.31
2022-10-20T21:16:36.408Z,11.41
2022-10-20T21:19:08.070Z,11.40
2022-10-20T21:21:37.982Z,11.37
2022-10-20T21:24:06.544Z,11.47
2022-10-20T21:26:36.175Z,11.38
2022-10-20T21:29:05.404Z,11.38
2022-10-20T21:31:33.648Z,11.46
2022-10-20T21:34:03.513Z,11.99
2022-10-20T21:36:32.847Z,12.33
2022-10-20T21:39:14.561Z,12.52
2022-10-20T21:41:45.772Z,12.58
2022-10-20T21:44:15.347Z,12.68
2022-10-20T21:46:49.505Z,12.95
2022-10-20T21:49:20.007Z,12.96
2022-10-20T21:51:57.674Z,12.99
2022-10-20T21:54:27.727Z,13.14
2022-10-20T21:56:57.651Z,13.05
2022-10-20T21:59:27.053Z,13.14
2022-10-20T22:02:07.558Z,13.10
2022-10-20T22:04:38.139Z,13.06
2022-10-20T22:07:06.683Z,13.00
2022-10-20T22:09:34.842Z,13.02
2022-10-20T22:12:09.097Z,13.00
2022-10-20T22:14:42.528Z,13.10
2022-10-20T22:17:14.171Z,13.05
2022-10-20T22:20:15.916Z,13.02
2022-10-20T22:22:51.126Z,13.17
2022-10-20T22:25:20.444Z,13.19
2022-10-20T22:27:52.872Z,13.17
2022-10-20T22:30:21.360Z,13.26
2022-10-20T22:32:49.546Z,13.23
2022-10-20T22:35:30.049Z,13.19
2022-10-20T22:38:32.742Z,13.24
2022-10-20T22:41:01.135Z,13.21
2022-10-20T22:43:31.547Z,13.26
2022-10-20T22:45:59.654Z,13.24
2022-10-20T22:48:27.621Z,13.23
2022-10-20T22:50:55.719Z,13.31
2022-10-20T22:53:24.837Z,13.24
2022-10-20T22:55:53.310Z,13.23
2022-10-20T22:58:22.792Z,13.20
2022-10-20T23:00:52.217Z,13.19
2022-10-20T23:03:20.192Z,13.14
2022-10-20T23:05:48.223Z,13.13
2022-10-20T23:08:17.068Z,13.17
2022-10-20T23:10:45.069Z,13.13
2022-10-20T23:13:12.974Z,13.14
2022-10-20T23:15:41.275Z,13.00
2022-10-20T23:18:10.734Z,13.06
2022-10-20T23:20:41.085Z,13.12
2022-10-20T23:23:09.371Z,13.10
2022-10-20T23:25:41.216Z,13.10
2022-10-20T23:28:09.521Z,13.13
2022-10-20T23:30:38.083Z,13.13
2022-10-20T23:33:06.078Z,13.12
2022-10-20T23:35:37.560Z,13.10
2022-10-20T23:38:06.013Z,13.10
2022-10-20T23:40:34.159Z,13.12
2022-10-20T23:43:02.328Z,13.12
2022-10-20T23:45:32.850Z,13.12
2022-10-20T23:48:03.814Z,13.09
2022-10-20T23:50:31.771Z,13.13
2022-10-20T23:53:01.530Z,13.10
2022-10-20T23:55:29.765Z,13.17
2022-10-20T23:57:57.930Z,13.21
